createdAt,value
2018-09-14T00:01:25.821Z,16.10
2018-09-14T00:03:53.909Z,16.20
2018-09-14T00:06:21.976Z,16.40
2018-09-14T00:08:50.041Z,16.70
2018-09-14T00:11:18.069Z,16.80
2018-09-14T00:13:46.146Z,16.90
2018-09-14T00:16:14.188Z,16.80
2018-09-14T00:18:42.288Z,16.80
2018-09-14T00:21:10.356Z,16.80
2018-09-14T00:23:38.386Z,16.70
2018-09-14T00:26:06.576Z,16.50
2018-09-14T00:28:34.653Z,16.30
2018-09-14T00:31:02.716Z,16.20
2018-09-14T00:33:30.747Z,16.10
2018-09-14T00:35:58.777Z,16.00
2018-09-14T00:38:26.826Z,15.90
2018-09-14T00:40:54.865Z,16.10
2018-09-14T00:43:22.932Z,16.30
2018-09-14T00:45:50.991Z,16.50
2018-09-14T00:48:19.063Z,16.60
2018-09-14T00:50:47.063Z,16.70
2018-09-14T00:53:15.067Z,16.80
2018-09-14T00:55:43.104Z,16.90
2018-09-14T00:58:11.117Z,17.00
2018-09-14T01:00:39.152Z,17.10
2018-09-14T01:03:07.212Z,17.20
2018-09-14T01:05:35.249Z,17.20
2018-09-14T01:08:03.292Z,17.20
2018-09-14T01:10:31.415Z,17.20
2018-09-14T01:12:59.441Z,17.30
2018-09-14T01:15:27.464Z,17.30
2018-09-14T01:17:55.492Z,17.40
2018-09-14T01:20:23.523Z,17.40
2018-09-14T01:22:51.561Z,17.40
2018-09-14T01:25:19.601Z,17.40
2018-09-14T01:27:47.736Z,17.50
2018-09-14T01:30:15.785Z,17.60
2018-09-14T01:32:43.806Z,17.60
2018-09-14T01:35:11.814Z,17.60
2018-09-14T01:37:39.857Z,17.60
2018-09-14T01:40:07.934Z,17.60
2018-09-14T01:42:35.973Z,17.60
2018-09-14T01:45:04.145Z,17.60
2018-09-14T01:47:32.195Z,17.50
2018-09-14T01:50:00.207Z,17.40
2018-09-14T01:52:28.230Z,17.40
2018-09-14T01:54:56.257Z,17.30
2018-09-14T01:57:24.270Z,17.20
2018-09-14T01:59:52.289Z,17.10
2018-09-14T02:02:20.325Z,17.10
2018-09-14T02:04:49.775Z,17.10
2018-09-14T02:07:17.866Z,17.00
2018-09-14T02:09:46.004Z,17.00
2018-09-14T02:12:14.052Z,16.90
2018-09-14T02:14:42.093Z,16.90
2018-09-14T02:17:10.124Z,16.80
2018-09-14T02:19:38.165Z,16.80
2018-09-14T02:22:06.221Z,16.80
2018-09-14T02:24:34.236Z,16.80
2018-09-14T02:27:02.267Z,16.90
2018-09-14T02:29:30.296Z,16.90
2018-09-14T02:31:58.331Z,16.80
2018-09-14T02:34:26.406Z,16.90
2018-09-14T02:36:54.408Z,16.90
2018-09-14T02:39:22.465Z,16.90
2018-09-14T02:41:50.530Z,16.90
2018-09-14T02:44:18.542Z,16.90
2018-09-14T02:46:46.545Z,16.90
2018-09-14T02:49:14.581Z,16.90
2018-09-14T02:51:42.613Z,16.90
2018-09-14T02:54:10.681Z,16.90
2018-09-14T02:56:38.711Z,16.90
2018-09-14T02:59:06.739Z,16.90
2018-09-14T03:01:34.759Z,16.90
2018-09-14T03:04:02.772Z,17.00
2018-09-14T03:06:30.836Z,17.00
2018-09-14T03:08:58.884Z,17.00
2018-09-14T03:11:26.917Z,16.90
2018-09-14T03:13:54.972Z,17.00
2018-09-14T03:16:22.972Z,17.00
2018-09-14T03:18:51.037Z,17.00
2018-09-14T03:21:19.059Z,17.00
2018-09-14T03:23:47.138Z,17.00
2018-09-14T03:26:15.164Z,17.00
2018-09-14T03:28:43.195Z,16.90
2018-09-14T03:31:11.230Z,16.80
2018-09-14T03:33:39.270Z,16.70
2018-09-14T03:36:07.305Z,16.60
2018-09-14T03:38:35.321Z,16.50
2018-09-14T03:41:03.361Z,16.50
2018-09-14T03:43:31.403Z,16.50
2018-09-14T03:45:59.498Z,16.50
2018-09-14T03:48:27.538Z,16.50
2018-09-14T03:50:55.568Z,16.50
2018-09-14T03:53:23.599Z,16.50
2018-09-14T03:55:51.827Z,16.40
2018-09-14T03:58:19.940Z,16.40
2018-09-14T04:00:48.033Z,16.40
2018-09-14T04:03:16.158Z,16.40
2018-09-14T04:05:44.201Z,16.30
2018-09-14T04:08:12.269Z,16.30
2018-09-14T04:10:40.296Z,16.30
2018-09-14T04:13:08.320Z,16.30
2018-09-14T04:15:36.357Z,16.30
2018-09-14T04:18:04.567Z,16.40
2018-09-14T04:20:32.754Z,16.40
2018-09-14T04:23:00.791Z,16.50
2018-09-14T04:25:28.793Z,16.50
2018-09-14T04:27:56.923Z,16.40
2018-09-14T04:30:24.972Z,16.40
2018-09-14T04:32:53.084Z,16.30
2018-09-14T04:35:21.099Z,16.30
2018-09-14T04:37:49.141Z,16.30
2018-09-14T04:40:17.184Z,16.20
2018-09-14T04:42:45.206Z,16.20
2018-09-14T04:45:13.320Z,16.10
2018-09-14T04:47:41.364Z,16.10
2018-09-14T04:50:09.432Z,16.10
2018-09-14T04:52:37.477Z,16.10
2018-09-14T04:55:05.582Z,16.00
2018-09-14T04:57:33.758Z,15.60
2018-09-14T05:00:01.678Z,15.10
2018-09-14T05:02:29.743Z,14.50
2018-09-14T05:04:57.758Z,14.00
2018-09-14T05:07:26.425Z,13.60
2018-09-14T05:09:54.457Z,13.20
2018-09-14T05:12:22.500Z,13.00
2018-09-14T05:14:50.517Z,12.90
2018-09-14T05:17:18.538Z,13.00
2018-09-14T05:19:46.583Z,13.30
2018-09-14T05:22:14.594Z,13.60
2018-09-14T05:24:42.606Z,14.00
2018-09-14T05:27:10.644Z,14.10
2018-09-14T05:29:38.749Z,14.40
2018-09-14T05:32:06.795Z,14.60
2018-09-14T05:34:34.844Z,14.90
2018-09-14T05:37:02.929Z,15.20
2018-09-14T05:39:30.941Z,15.50
2018-09-14T05:41:58.972Z,15.70
2018-09-14T05:44:26.977Z,15.90
2018-09-14T05:46:55.108Z,16.00
2018-09-14T05:49:23.152Z,16.00
2018-09-14T05:51:52.035Z,16.10
2018-09-14T05:54:20.107Z,16.20
2018-09-14T05:56:48.146Z,15.90
2018-09-14T05:59:16.231Z,15.40
2018-09-14T06:01:44.324Z,14.90
2018-09-14T06:04:12.424Z,14.70
2018-09-14T06:06:40.549Z,14.80
2018-09-14T06:09:09.073Z,15.00
2018-09-14T06:11:37.145Z,15.10
2018-09-14T06:14:05.353Z,15.30
2018-09-14T06:16:33.583Z,15.50
2018-09-14T06:19:01.626Z,15.60
2018-09-14T06:21:29.661Z,15.80
2018-09-14T06:23:57.804Z,15.60
2018-09-14T06:26:25.838Z,15.50
2018-09-14T06:28:53.921Z,15.60
2018-09-14T06:31:21.943Z,15.80
2018-09-14T06:33:50.142Z,16.00
2018-09-14T06:36:18.193Z,16.00
2018-09-14T06:38:46.293Z,16.00
2018-09-14T06:41:14.327Z,15.60
2018-09-14T06:43:43.062Z,15.20
2018-09-14T06:46:11.142Z,15.00
2018-09-14T06:48:39.328Z,15.00
2018-09-14T06:51:07.461Z,15.30
2018-09-14T06:53:35.646Z,15.60
2018-09-14T06:56:03.773Z,15.90
2018-09-14T06:58:32.146Z,16.10
2018-09-14T07:01:00.268Z,16.20
2018-09-14T07:03:28.565Z,16.30
2018-09-14T07:05:56.583Z,16.30
2018-09-14T07:08:24.670Z,16.40
2018-09-14T07:10:52.736Z,16.50
2018-09-14T07:13:20.792Z,16.70
2018-09-14T07:15:48.896Z,16.80
2018-09-14T07:18:17.022Z,16.90
2018-09-14T07:20:45.053Z,16.90
2018-09-14T07:23:13.070Z,16.70
2018-09-14T07:25:41.124Z,16.70
2018-09-14T07:28:09.225Z,16.70
2018-09-14T07:30:37.267Z,16.70
2018-09-14T07:33:05.798Z,16.60
2018-09-14T07:35:34.711Z,16.60
2018-09-14T07:38:02.813Z,16.50
2018-09-14T07:40:30.840Z,16.50
2018-09-14T07:42:58.954Z,16.60
2018-09-14T07:45:27.002Z,16.70
2018-09-14T07:47:55.032Z,16.70
2018-09-14T07:50:23.040Z,16.90
2018-09-14T07:52:51.084Z,17.00
2018-09-14T07:55:19.201Z,17.00
2018-09-14T07:57:47.201Z,17.20
2018-09-14T08:00:15.265Z,17.10
2018-09-14T08:02:43.884Z,17.10
2018-09-14T08:05:11.928Z,17.20
2018-09-14T08:07:39.954Z,17.30
2018-09-14T08:10:14.294Z,17.40
2018-09-14T08:12:42.398Z,17.50
2018-09-14T08:15:10.420Z,17.50
2018-09-14T08:17:38.865Z,17.70
2018-09-14T08:20:07.137Z,17.70
2018-09-14T08:22:35.112Z,17.70
2018-09-14T08:25:03.192Z,17.60
2018-09-14T08:27:31.352Z,17.70
2018-09-14T08:29:59.397Z,17.80
2018-09-14T08:32:27.510Z,17.70
2018-09-14T08:34:55.504Z,17.70
2018-09-14T08:37:23.604Z,17.80
2018-09-14T08:39:51.629Z,17.90
2018-09-14T08:42:19.816Z,18.10
2018-09-14T08:44:47.870Z,18.10
2018-09-14T08:47:15.892Z,18.30
2018-09-14T08:49:44.009Z,18.50
2018-09-14T08:52:12.041Z,18.50
2018-09-14T08:54:40.073Z,18.70
2018-09-14T08:57:08.175Z,18.60
2018-09-14T08:59:36.225Z,18.70
2018-09-14T09:02:04.280Z,18.70
2018-09-14T09:04:32.468Z,18.80
2018-09-14T09:07:00.544Z,18.80
2018-09-14T09:09:28.683Z,18.80
2018-09-14T09:11:56.705Z,18.80
2018-09-14T09:14:24.724Z,18.90
2018-09-14T09:16:52.790Z,18.90
2018-09-14T09:19:20.908Z,19.00
2018-09-14T09:21:48.876Z,19.00
2018-09-14T09:24:16.937Z,19.10
2018-09-14T09:26:44.965Z,19.10
2018-09-14T09:29:13.043Z,19.10
2018-09-14T09:31:41.091Z,19.20
2018-09-14T09:34:09.146Z,19.30
2018-09-14T09:36:37.170Z,19.20
2018-09-14T09:39:08.997Z,19.30
2018-09-14T09:41:36.993Z,19.40
2018-09-14T09:44:05.154Z,19.50
2018-09-14T09:46:33.146Z,19.50
2018-09-14T09:49:01.170Z,19.50
2018-09-14T09:51:29.193Z,19.50
2018-09-14T09:53:57.238Z,19.60
2018-09-14T09:56:25.278Z,19.70
2018-09-14T09:58:53.304Z,19.80
2018-09-14T10:01:21.417Z,19.90
2018-09-14T10:03:49.499Z,20.00
2018-09-14T10:06:17.456Z,20.00
2018-09-14T10:08:45.516Z,20.00
2018-09-14T10:11:13.541Z,20.10
2018-09-14T10:13:41.569Z,20.10
2018-09-14T10:16:09.593Z,20.00
2018-09-14T10:18:37.605Z,20.10
2018-09-14T10:21:05.968Z,20.10
2018-09-14T10:23:33.933Z,20.20
2018-09-14T10:26:01.970Z,20.20
2018-09-14T10:28:29.981Z,20.30
2018-09-14T10:30:58.114Z,20.40
2018-09-14T10:33:26.160Z,20.50
2018-09-14T10:35:54.174Z,20.50
2018-09-14T10:38:22.199Z,20.50
2018-09-14T10:40:50.296Z,20.40
2018-09-14T10:43:18.261Z,20.40
2018-09-14T10:45:46.305Z,20.40
2018-09-14T10:48:14.692Z,20.40
2018-09-14T10:50:42.761Z,20.50
2018-09-14T10:53:10.797Z,20.50
2018-09-14T10:55:38.860Z,20.60
2018-09-14T10:58:06.919Z,20.70
2018-09-14T11:00:34.943Z,21.00
2018-09-14T11:03:02.958Z,21.20
2018-09-14T11:05:31.067Z,21.40
2018-09-14T11:07:59.162Z,21.50
2018-09-14T11:10:27.228Z,21.60
2018-09-14T11:12:55.375Z,21.60
2018-09-14T11:15:23.357Z,21.60
2018-09-14T11:17:51.410Z,21.70
2018-09-14T11:20:19.447Z,21.60
2018-09-14T11:22:47.457Z,21.70
2018-09-14T11:25:15.547Z,21.70
2018-09-14T11:27:43.574Z,21.70
2018-09-14T11:30:11.613Z,21.70
2018-09-14T11:32:39.662Z,21.70
2018-09-14T11:35:08.645Z,21.60
2018-09-14T11:37:36.714Z,21.50
2018-09-14T11:40:04.909Z,21.40
2018-09-14T11:42:33.157Z,21.30
2018-09-14T11:45:01.250Z,21.30
2018-09-14T11:47:29.222Z,21.40
2018-09-14T11:49:57.401Z,21.50
2018-09-14T11:52:25.424Z,21.60
2018-09-14T11:54:53.529Z,21.70
2018-09-14T11:57:21.558Z,21.80
2018-09-14T11:59:49.621Z,22.00
2018-09-14T12:02:17.781Z,22.00
2018-09-14T12:04:45.887Z,21.90
2018-09-14T12:07:14.041Z,21.90
2018-09-14T12:09:42.026Z,21.80
2018-09-14T12:12:10.114Z,21.70
2018-09-14T12:14:38.120Z,21.70
2018-09-14T12:17:06.193Z,21.70
2018-09-14T12:19:34.336Z,21.70
2018-09-14T12:22:02.465Z,21.80
2018-09-14T12:24:30.513Z,21.80
2018-09-14T12:26:58.562Z,22.00
2018-09-14T12:29:26.628Z,22.10
2018-09-14T12:31:54.665Z,22.20
2018-09-14T12:34:22.705Z,22.30
2018-09-14T12:36:50.773Z,22.40
2018-09-14T12:39:18.808Z,22.50
2018-09-14T12:41:46.868Z,22.60
2018-09-14T12:44:15.043Z,22.60
2018-09-14T12:46:43.094Z,22.70
2018-09-14T12:49:11.170Z,22.70
2018-09-14T12:51:39.208Z,22.50
2018-09-14T12:54:07.305Z,22.30
2018-09-14T12:56:35.322Z,22.20
2018-09-14T12:59:03.563Z,22.10
2018-09-14T13:01:31.629Z,22.10
2018-09-14T13:03:59.692Z,22.10
2018-09-14T13:06:27.740Z,22.20
2018-09-14T13:08:55.796Z,22.20
2018-09-14T13:11:23.950Z,22.30
2018-09-14T13:13:52.089Z,22.40
2018-09-14T13:16:20.115Z,22.40
2018-09-14T13:18:48.208Z,22.40
2018-09-14T13:21:16.339Z,22.40
2018-09-14T13:23:44.397Z,22.40
2018-09-14T13:26:12.408Z,22.30
2018-09-14T13:28:40.482Z,22.20
2018-09-14T13:31:08.570Z,22.30
2018-09-14T13:33:36.636Z,22.30
2018-09-14T13:36:04.656Z,22.40
2018-09-14T13:38:32.768Z,22.40
2018-09-14T13:41:00.809Z,22.40
2018-09-14T13:43:28.862Z,22.40
2018-09-14T13:45:56.903Z,22.30
2018-09-14T13:48:24.945Z,22.40
2018-09-14T13:50:54.094Z,22.40
2018-09-14T13:53:22.395Z,22.40
2018-09-14T13:55:50.480Z,22.40
2018-09-14T13:58:18.493Z,22.50
2018-09-14T14:00:46.552Z,22.50
2018-09-14T14:03:14.618Z,22.60
2018-09-14T14:05:42.692Z,22.70
2018-09-14T14:08:10.716Z,22.80
2018-09-14T14:10:39.440Z,22.70
2018-09-14T14:13:07.529Z,22.80
2018-09-14T14:15:35.642Z,22.80
2018-09-14T14:18:03.876Z,22.90
2018-09-14T14:23:14.963Z,22.70
2018-09-14T14:25:43.016Z,22.70
2018-09-14T14:28:11.061Z,22.70
2018-09-14T14:30:39.141Z,22.80
2018-09-14T14:33:07.401Z,22.80
2018-09-14T14:35:35.426Z,22.70
2018-09-14T14:38:03.531Z,22.60
2018-09-14T14:40:31.783Z,22.50
2018-09-14T14:42:59.822Z,22.50
2018-09-14T14:45:27.880Z,22.40
2018-09-14T14:47:55.905Z,22.50
2018-09-14T14:50:23.976Z,22.50
2018-09-14T14:52:52.005Z,22.60
2018-09-14T14:55:20.099Z,22.60
2018-09-14T14:57:48.116Z,22.60
2018-09-14T15:00:16.182Z,22.60
2018-09-14T15:02:44.237Z,22.60
2018-09-14T15:05:12.457Z,22.70
2018-09-14T15:07:40.505Z,22.60
2018-09-14T15:10:08.560Z,22.60
2018-09-14T15:12:36.827Z,22.60
2018-09-14T15:15:04.989Z,22.50
2018-09-14T15:17:33.160Z,22.40
2018-09-14T15:20:01.298Z,22.40
2018-09-14T15:22:29.391Z,22.40
2018-09-14T15:24:57.441Z,22.40
2018-09-14T15:27:25.497Z,22.40
2018-09-14T15:29:53.597Z,22.30
2018-09-14T15:32:21.632Z,22.30
2018-09-14T15:34:49.667Z,22.30
2018-09-14T15:37:17.714Z,22.30
2018-09-14T15:39:45.919Z,22.10
2018-09-14T15:42:13.933Z,21.90
2018-09-14T15:44:42.200Z,21.90
2018-09-14T15:47:10.219Z,21.70
2018-09-14T15:49:38.251Z,21.70
2018-09-14T15:52:06.448Z,21.70
2018-09-14T15:54:34.649Z,21.70
2018-09-14T15:57:02.750Z,21.80
2018-09-14T15:59:30.888Z,21.70
2018-09-14T16:01:58.984Z,21.80
2018-09-14T16:04:27.052Z,21.70
2018-09-14T16:06:55.089Z,21.70
2018-09-14T16:09:23.114Z,21.70
2018-09-14T16:11:51.226Z,21.70
2018-09-14T16:14:20.269Z,21.70
2018-09-14T16:16:48.292Z,21.70
2018-09-14T16:19:16.424Z,21.60
2018-09-14T16:21:44.491Z,21.50
2018-09-14T16:24:12.608Z,21.50
2018-09-14T16:29:15.225Z,21.40
2018-09-14T16:31:43.348Z,21.40
2018-09-14T16:34:11.597Z,21.40
2018-09-14T16:36:39.663Z,21.30
2018-09-14T16:39:08.187Z,21.30
2018-09-14T16:41:36.237Z,21.40
2018-09-14T16:44:04.340Z,21.40
2018-09-14T16:46:32.474Z,21.40
2018-09-14T16:49:00.501Z,21.40
2018-09-14T16:51:28.581Z,21.40
2018-09-14T16:53:56.613Z,21.40
2018-09-14T16:56:24.625Z,21.40
2018-09-14T16:58:52.672Z,21.50
2018-09-14T17:01:20.726Z,21.40
2018-09-14T17:03:49.040Z,21.30
2018-09-14T17:06:17.320Z,21.40
2018-09-14T17:08:45.428Z,21.30
2018-09-14T17:11:13.547Z,21.30
2018-09-14T17:13:41.648Z,21.30
2018-09-14T17:16:09.771Z,21.20
2018-09-14T17:21:12.296Z,21.10
2018-09-14T17:23:40.406Z,21.10
2018-09-14T17:26:08.524Z,21.00
2018-09-14T17:28:36.685Z,20.90
2018-09-14T17:31:06.032Z,20.80
2018-09-14T17:33:34.247Z,20.70
2018-09-14T17:36:02.337Z,20.60
2018-09-14T17:38:30.342Z,20.50
2018-09-14T17:40:58.401Z,20.50
2018-09-14T17:43:26.489Z,20.50
2018-09-14T17:45:55.073Z,20.40
2018-09-14T17:48:23.152Z,20.40
2018-09-14T17:50:51.254Z,20.40
2018-09-14T17:53:19.323Z,20.40
2018-09-14T17:55:47.622Z,20.30
2018-09-14T17:58:15.661Z,20.20
2018-09-14T18:00:43.695Z,20.20
2018-09-14T18:03:11.826Z,20.10
2018-09-14T18:05:39.885Z,20.10
2018-09-14T18:08:08.613Z,20.20
2018-09-14T18:10:36.745Z,20.30
2018-09-14T18:13:04.885Z,20.20
2018-09-14T18:15:33.398Z,20.30
2018-09-14T18:18:01.406Z,20.30
2018-09-14T18:20:29.605Z,20.40
2018-09-14T18:22:57.730Z,20.40
2018-09-14T18:25:25.835Z,20.30
2018-09-14T18:27:53.953Z,20.30
2018-09-14T18:30:22.037Z,20.30
2018-09-14T18:32:50.134Z,20.30
2018-09-14T18:35:18.266Z,20.30
2018-09-14T18:37:46.286Z,20.30
2018-09-14T18:40:14.378Z,20.30
2018-09-14T18:42:42.476Z,20.20
2018-09-14T18:45:10.558Z,20.20
2018-09-14T18:47:38.649Z,20.20
2018-09-14T18:50:06.969Z,20.20
2018-09-14T18:52:35.100Z,20.20
2018-09-14T18:55:03.178Z,20.10
2018-09-14T18:57:31.303Z,20.10
2018-09-14T18:59:59.349Z,20.10
2018-09-14T19:02:27.469Z,20.10
2018-09-14T19:04:55.635Z,20.00
2018-09-14T19:07:23.716Z,20.00
2018-09-14T19:09:51.791Z,20.00
2018-09-14T19:12:19.997Z,20.00
2018-09-14T19:14:48.332Z,19.90
2018-09-14T19:17:17.057Z,19.80
2018-09-14T19:19:48.799Z,19.70
2018-09-14T19:22:17.253Z,19.80
2018-09-14T19:24:45.599Z,19.70
2018-09-14T19:27:13.667Z,19.80
2018-09-14T19:29:41.712Z,19.70
2018-09-14T19:32:09.814Z,19.60
2018-09-14T19:34:37.919Z,19.70
2018-09-14T19:37:06.099Z,19.70
2018-09-14T19:39:34.176Z,19.80
2018-09-14T19:42:02.224Z,19.70
2018-09-14T19:44:30.320Z,19.70
2018-09-14T19:46:58.347Z,19.70
2018-09-14T19:49:26.508Z,19.70
2018-09-14T19:51:54.592Z,19.60
2018-09-14T19:54:22.913Z,19.60
2018-09-14T19:56:51.033Z,19.70
2018-09-14T19:59:19.164Z,19.60
2018-09-14T20:01:47.263Z,19.60
2018-09-14T20:04:15.312Z,19.60
2018-09-14T20:06:43.369Z,19.70
2018-09-14T20:09:11.466Z,19.60
2018-09-14T20:11:39.647Z,19.50
2018-09-14T20:14:07.606Z,19.40
2018-09-14T20:16:35.732Z,19.30
2018-09-14T20:19:03.817Z,19.20
2018-09-14T20:21:31.942Z,19.30
2018-09-14T20:24:00.026Z,19.30
2018-09-14T20:26:28.066Z,19.40
2018-09-14T20:28:56.221Z,19.40
2018-09-14T20:31:24.409Z,19.30
2018-09-14T20:33:52.449Z,19.20
2018-09-14T20:36:20.521Z,19.10
2018-09-14T20:38:48.556Z,19.10
2018-09-14T20:41:16.598Z,19.00
2018-09-14T20:43:44.681Z,18.90
2018-09-14T20:46:12.736Z,19.00
2018-09-14T20:48:40.872Z,19.10
2018-09-14T20:51:08.963Z,19.00
2018-09-14T20:53:37.042Z,19.20
2018-09-14T20:56:05.164Z,19.20
2018-09-14T20:58:33.295Z,19.10
2018-09-14T21:01:01.384Z,19.10
2018-09-14T21:03:29.476Z,19.10
2018-09-14T21:05:58.041Z,19.00
2018-09-14T21:08:26.151Z,18.90
2018-09-14T21:10:54.201Z,18.80
2018-09-14T21:13:22.298Z,18.70
2018-09-14T21:15:50.522Z,18.70
2018-09-14T21:18:18.600Z,18.70
2018-09-14T21:20:46.697Z,18.70
2018-09-14T21:23:14.874Z,18.70
2018-09-14T21:25:42.962Z,18.80
2018-09-14T21:28:11.371Z,18.70
2018-09-14T21:30:39.491Z,18.70
2018-09-14T21:33:07.562Z,18.70
2018-09-14T21:35:35.642Z,18.60
2018-09-14T21:38:03.760Z,18.60
2018-09-14T21:40:32.047Z,18.60
2018-09-14T21:43:00.093Z,18.50
2018-09-14T21:45:28.180Z,18.50
2018-09-14T21:47:56.255Z,18.60
2018-09-14T21:50:24.291Z,18.60
2018-09-14T21:52:53.514Z,18.70
2018-09-14T21:55:25.361Z,18.60
2018-09-14T21:57:54.182Z,18.60
2018-09-14T22:00:22.272Z,18.70
2018-09-14T22:02:50.322Z,18.70
2018-09-14T22:05:18.475Z,18.70
2018-09-14T22:07:46.745Z,18.80
2018-09-14T22:10:14.909Z,18.70
2018-09-14T22:12:43.013Z,18.70
2018-09-14T22:15:11.125Z,18.70
2018-09-14T22:17:39.747Z,18.60
2018-09-14T22:20:07.812Z,18.60
2018-09-14T22:22:35.901Z,18.60
2018-09-14T22:25:04.069Z,18.70
2018-09-14T22:27:32.224Z,18.70
2018-09-14T22:30:00.268Z,18.80
2018-09-14T22:32:28.306Z,18.70
2018-09-14T22:34:56.380Z,18.80
2018-09-14T22:37:24.432Z,18.80
2018-09-14T22:39:52.444Z,18.80
2018-09-14T22:42:20.478Z,18.90
2018-09-14T22:44:48.536Z,18.90
2018-09-14T22:47:16.680Z,19.00
2018-09-14T22:49:44.773Z,19.00
2018-09-14T22:52:12.813Z,19.00
2018-09-14T22:54:40.960Z,19.10
2018-09-14T22:57:09.001Z,19.10
2018-09-14T22:59:37.120Z,19.00
2018-09-14T23:02:05.150Z,19.00
2018-09-14T23:04:33.188Z,19.00
2018-09-14T23:07:01.209Z,18.80
2018-09-14T23:09:29.253Z,18.70
2018-09-14T23:11:57.306Z,18.50
2018-09-14T23:14:25.357Z,18.40
2018-09-14T23:16:53.480Z,18.30
2018-09-14T23:19:21.533Z,18.30
2018-09-14T23:21:49.549Z,18.20
2018-09-14T23:24:17.653Z,18.20
2018-09-14T23:26:45.674Z,18.20
2018-09-14T23:29:13.718Z,18.20
2018-09-14T23:31:41.720Z,18.10
2018-09-14T23:34:09.743Z,18.00
2018-09-14T23:36:37.761Z,17.90
2018-09-14T23:39:07.601Z,17.90
2018-09-14T23:41:35.685Z,17.80
2018-09-14T23:44:10.334Z,17.80
2018-09-14T23:46:38.364Z,17.80
2018-09-14T23:49:06.361Z,17.70
2018-09-14T23:51:34.405Z,17.70
2018-09-14T23:54:02.456Z,17.70
2018-09-14T23:56:30.505Z,17.60
2018-09-14T23:58:58.533Z,17.50
